sensor_id;sensor_type;location;lat;lon;timestamp;temperature;humidity
24085;DHT22;12268;52.110;5.548;2023-06-05T00:00:31;16.50;99.90
24085;DHT22;12268;52.110;5.548;2023-06-05T00:02:56;16.40;99.90
24085;DHT22;12268;52.110;5.548;2023-06-05T00:05:22;16.40;99.90
24085;DHT22;12268;52.110;5.548;2023-06-05T00:07:53;16.50;99.90
24085;DHT22;12268;52.110;5.548;2023-06-05T00:10:19;16.60;99.90
24085;DHT22;12268;52.110;5.548;2023-06-05T00:12:45;16.50;99.90
24085;DHT22;12268;52.110;5.548;2023-06-05T00:15:11;16.50;99.90
24085;DHT22;12268;52.110;5.548;2023-06-05T00:17:37;16.50;99.90
24085;DHT22;12268;52.110;5.548;2023-06-05T00:20:03;16.50;99.90
24085;DHT22;12268;52.110;5.548;2023-06-05T00:22:29;16.40;99.90
24085;DHT22;12268;52.110;5.548;2023-06-05T00:24:57;16.40;99.90
24085;DHT22;12268;52.110;5.548;2023-06-05T00:27:23;16.30;99.90
24085;DHT22;12268;52.110;5.548;2023-06-05T00:29:49;16.30;99.90
24085;DHT22;12268;52.110;5.548;2023-06-05T00:32:15;16.20;99.90
24085;DHT22;12268;52.110;5.548;2023-06-05T00:34:40;16.20;99.90
24085;DHT22;12268;52.110;5.548;2023-06-05T00:37:06;16.20;99.90
24085;DHT22;12268;52.110;5.548;2023-06-05T00:39:31;16.10;99.90
24085;DHT22;12268;52.110;5.548;2023-06-05T00:41:57;16.20;99.90
24085;DHT22;12268;52.110;5.548;2023-06-05T00:44:22;16.10;99.90
24085;DHT22;12268;52.110;5.548;2023-06-05T00:46:50;16.10;99.90
24085;DHT22;12268;52.110;5.548;2023-06-05T00:49:17;16.10;99.90
24085;DHT22;12268;52.110;5.548;2023-06-05T00:51:44;16.10;99.90
24085;DHT22;12268;52.110;5.548;2023-06-05T00:54:10;16.00;99.90
24085;DHT22;12268;52.110;5.548;2023-06-05T00:56:37;16.00;99.90
24085;DHT22;12268;52.110;5.548;2023-06-05T00:59:05;16.00;99.90
24085;DHT22;12268;52.110;5.548;2023-06-05T01:01:30;16.00;99.90
24085;DHT22;12268;52.110;5.548;2023-06-05T01:03:57;16.00;99.90
24085;DHT22;12268;52.110;5.548;2023-06-05T01:06:29;15.90;99.90
24085;DHT22;12268;52.110;5.548;2023-06-05T01:08:56;15.90;99.90
24085;DHT22;12268;52.110;5.548;2023-06-05T01:16:27;15.80;99.90
24085;DHT22;12268;52.110;5.548;2023-06-05T01:18:59;15.70;99.90
24085;DHT22;12268;52.110;5.548;2023-06-05T01:21:32;15.70;99.90
24085;DHT22;12268;52.110;5.548;2023-06-05T01:23:58;15.60;99.90
24085;DHT22;12268;52.110;5.548;2023-06-05T01:26:28;15.70;99.90
24085;DHT22;12268;52.110;5.548;2023-06-05T01:28:56;15.60;99.90
24085;DHT22;12268;52.110;5.548;2023-06-05T01:31:23;15.70;99.90
24085;DHT22;12268;52.110;5.548;2023-06-05T01:33:57;15.70;99.90
24085;DHT22;12268;52.110;5.548;2023-06-05T01:36:31;15.70;99.90
24085;DHT22;12268;52.110;5.548;2023-06-05T01:38:58;15.60;99.90
24085;DHT22;12268;52.110;5.548;2023-06-05T01:41:25;15.50;99.90
24085;DHT22;12268;52.110;5.548;2023-06-05T01:43:52;15.60;99.90
24085;DHT22;12268;52.110;5.548;2023-06-05T01:46:19;15.50;99.90
24085;DHT22;12268;52.110;5.548;2023-06-05T01:48:45;15.50;99.90
24085;DHT22;12268;52.110;5.548;2023-06-05T01:51:11;15.50;99.90
24085;DHT22;12268;52.110;5.548;2023-06-05T01:53:37;15.50;99.90
24085;DHT22;12268;52.110;5.548;2023-06-05T01:56:03;15.50;99.90
24085;DHT22;12268;52.110;5.548;2023-06-05T01:58:28;15.50;99.90
24085;DHT22;12268;52.110;5.548;2023-06-05T02:00:54;15.50;99.90
24085;DHT22;12268;52.110;5.548;2023-06-05T02:03:22;15.40;99.90
24085;DHT22;12268;52.110;5.548;2023-06-05T02:05:48;15.50;99.90
24085;DHT22;12268;52.110;5.548;2023-06-05T02:08:14;15.40;99.90
24085;DHT22;12268;52.110;5.548;2023-06-05T02:10:47;15.30;99.90
24085;DHT22;12268;52.110;5.548;2023-06-05T02:13:13;15.30;99.90
24085;DHT22;12268;52.110;5.548;2023-06-05T02:15:41;15.30;99.90
24085;DHT22;12268;52.110;5.548;2023-06-05T02:18:07;15.30;99.90
24085;DHT22;12268;52.110;5.548;2023-06-05T02:20:33;15.20;99.90
24085;DHT22;12268;52.110;5.548;2023-06-05T02:23:00;15.20;99.90
24085;DHT22;12268;52.110;5.548;2023-06-05T02:25:25;15.20;99.90
24085;DHT22;12268;52.110;5.548;2023-06-05T02:27:53;15.10;99.90
24085;DHT22;12268;52.110;5.548;2023-06-05T02:30:19;15.10;99.90
24085;DHT22;12268;52.110;5.548;2023-06-05T02:32:45;15.00;99.90
24085;DHT22;12268;52.110;5.548;2023-06-05T02:35:11;14.90;99.90
24085;DHT22;12268;52.110;5.548;2023-06-05T02:37:37;14.80;99.90
24085;DHT22;12268;52.110;5.548;2023-06-05T02:40:09;14.80;99.90
24085;DHT22;12268;52.110;5.548;2023-06-05T02:42:36;14.90;99.90
24085;DHT22;12268;52.110;5.548;2023-06-05T02:45:02;14.90;99.90
24085;DHT22;12268;52.110;5.548;2023-06-05T02:47:29;14.80;99.90
24085;DHT22;12268;52.110;5.548;2023-06-05T02:49:55;14.80;99.90
24085;DHT22;12268;52.110;5.548;2023-06-05T02:52:20;14.90;99.90
24085;DHT22;12268;52.110;5.548;2023-06-05T02:54:47;14.90;99.90
24085;DHT22;12268;52.110;5.548;2023-06-05T02:57:12;14.90;99.90
24085;DHT22;12268;52.110;5.548;2023-06-05T02:59:39;14.80;99.90
24085;DHT22;12268;52.110;5.548;2023-06-05T03:02:08;14.80;99.90
24085;DHT22;12268;52.110;5.548;2023-06-05T03:04:34;14.80;99.90
24085;DHT22;12268;52.110;5.548;2023-06-05T03:07:00;14.80;99.90
24085;DHT22;12268;52.110;5.548;2023-06-05T03:09:30;14.70;99.90
24085;DHT22;12268;52.110;5.548;2023-06-05T03:11:56;14.60;99.90
24085;DHT22;12268;52.110;5.548;2023-06-05T03:14:22;14.70;99.90
24085;DHT22;12268;52.110;5.548;2023-06-05T03:16:47;14.70;99.90
24085;DHT22;12268;52.110;5.548;2023-06-05T03:19:13;14.70;99.90
24085;DHT22;12268;52.110;5.548;2023-06-05T03:21:39;14.80;99.90
24085;DHT22;12268;52.110;5.548;2023-06-05T03:24:10;14.70;99.90
24085;DHT22;12268;52.110;5.548;2023-06-05T03:26:38;14.60;99.90
24085;DHT22;12268;52.110;5.548;2023-06-05T03:29:04;14.50;99.90
24085;DHT22;12268;52.110;5.548;2023-06-05T03:31:30;14.60;99.90
24085;DHT22;12268;52.110;5.548;2023-06-05T03:33:56;14.60;99.90
24085;DHT22;12268;52.110;5.548;2023-06-05T03:36:23;14.40;99.90
24085;DHT22;12268;52.110;5.548;2023-06-05T03:38:49;14.40;99.90
24085;DHT22;12268;52.110;5.548;2023-06-05T03:41:14;14.50;99.90
24085;DHT22;12268;52.110;5.548;2023-06-05T03:43:40;14.50;99.90
24085;DHT22;12268;52.110;5.548;2023-06-05T03:46:06;14.60;99.90
24085;DHT22;12268;52.110;5.548;2023-06-05T03:48:32;14.60;99.90
24085;DHT22;12268;52.110;5.548;2023-06-05T03:50:58;14.60;99.90
24085;DHT22;12268;52.110;5.548;2023-06-05T03:53:25;14.70;99.90
24085;DHT22;12268;52.110;5.548;2023-06-05T03:55:55;14.70;99.90
24085;DHT22;12268;52.110;5.548;2023-06-05T03:58:21;14.60;99.90
24085;DHT22;12268;52.110;5.548;2023-06-05T04:00:48;14.60;99.90
24085;DHT22;12268;52.110;5.548;2023-06-05T04:03:14;14.60;99.90
24085;DHT22;12268;52.110;5.548;2023-06-05T04:05:40;14.50;99.90
24085;DHT22;12268;52.110;5.548;2023-06-05T04:08:07;14.60;99.90
24085;DHT22;12268;52.110;5.548;2023-06-05T04:10:33;14.60;99.90
24085;DHT22;12268;52.110;5.548;2023-06-05T04:12:59;14.70;99.90
24085;DHT22;12268;52.110;5.548;2023-06-05T04:15:25;14.80;99.90
24085;DHT22;12268;52.110;5.548;2023-06-05T04:17:51;14.70;99.90
24085;DHT22;12268;52.110;5.548;2023-06-05T04:20:17;14.90;99.90
24085;DHT22;12268;52.110;5.548;2023-06-05T04:22:44;14.90;99.90
24085;DHT22;12268;52.110;5.548;2023-06-05T04:25:10;15.00;99.90
24085;DHT22;12268;52.110;5.548;2023-06-05T04:27:42;15.10;99.90
24085;DHT22;12268;52.110;5.548;2023-06-05T04:30:09;15.00;99.90
24085;DHT22;12268;52.110;5.548;2023-06-05T04:32:36;15.00;99.90
24085;DHT22;12268;52.110;5.548;2023-06-05T04:35:10;15.00;99.90
24085;DHT22;12268;52.110;5.548;2023-06-05T04:37:37;15.10;99.90
24085;DHT22;12268;52.110;5.548;2023-06-05T04:40:04;15.20;99.90
24085;DHT22;12268;52.110;5.548;2023-06-05T04:42:32;15.10;99.90
24085;DHT22;12268;52.110;5.548;2023-06-05T04:44:59;15.20;99.90
24085;DHT22;12268;52.110;5.548;2023-06-05T04:47:30;15.20;99.90
24085;DHT22;12268;52.110;5.548;2023-06-05T04:50:00;15.30;99.90
24085;DHT22;12268;52.110;5.548;2023-06-05T04:52:29;15.20;99.90
24085;DHT22;12268;52.110;5.548;2023-06-05T04:54:55;15.20;99.90
24085;DHT22;12268;52.110;5.548;2023-06-05T04:57:21;15.20;99.90
24085;DHT22;12268;52.110;5.548;2023-06-05T04:59:46;15.20;99.90
24085;DHT22;12268;52.110;5.548;2023-06-05T05:02:12;15.30;99.90
24085;DHT22;12268;52.110;5.548;2023-06-05T05:04:38;15.30;99.90
24085;DHT22;12268;52.110;5.548;2023-06-05T05:07:03;15.30;99.90
24085;DHT22;12268;52.110;5.548;2023-06-05T05:09:30;15.20;99.90
24085;DHT22;12268;52.110;5.548;2023-06-05T05:11:56;15.10;99.90
24085;DHT22;12268;52.110;5.548;2023-06-05T05:14:24;15.30;99.90
24085;DHT22;12268;52.110;5.548;2023-06-05T05:16:51;15.20;99.90
24085;DHT22;12268;52.110;5.548;2023-06-05T05:19:16;15.40;99.90
24085;DHT22;12268;52.110;5.548;2023-06-05T05:21:42;15.50;99.90
24085;DHT22;12268;52.110;5.548;2023-06-05T05:24:07;15.40;99.90
24085;DHT22;12268;52.110;5.548;2023-06-05T05:26:33;15.30;99.90
24085;DHT22;12268;52.110;5.548;2023-06-05T05:28:59;15.40;99.90
24085;DHT22;12268;52.110;5.548;2023-06-05T05:31:24;15.60;99.90
24085;DHT22;12268;52.110;5.548;2023-06-05T05:33:50;15.80;99.90
24085;DHT22;12268;52.110;5.548;2023-06-05T05:36:16;16.00;99.90
24085;DHT22;12268;52.110;5.548;2023-06-05T05:38:41;16.10;99.90
24085;DHT22;12268;52.110;5.548;2023-06-05T05:41:07;16.10;99.90
24085;DHT22;12268;52.110;5.548;2023-06-05T05:43:32;16.20;99.90
24085;DHT22;12268;52.110;5.548;2023-06-05T05:45:58;16.40;99.90
24085;DHT22;12268;52.110;5.548;2023-06-05T05:48:23;16.50;99.90
24085;DHT22;12268;52.110;5.548;2023-06-05T05:50:49;16.60;99.90
24085;DHT22;12268;52.110;5.548;2023-06-05T05:53:15;16.70;99.90
24085;DHT22;12268;52.110;5.548;2023-06-05T05:55:40;16.60;99.90
24085;DHT22;12268;52.110;5.548;2023-06-05T05:58:06;16.70;99.90
24085;DHT22;12268;52.110;5.548;2023-06-05T06:00:32;16.80;99.90
24085;DHT22;12268;52.110;5.548;2023-06-05T06:02:57;16.60;99.90
24085;DHT22;12268;52.110;5.548;2023-06-05T06:05:24;16.70;99.90
24085;DHT22;12268;52.110;5.548;2023-06-05T06:07:49;17.00;99.90
24085;DHT22;12268;52.110;5.548;2023-06-05T06:10:15;17.10;99.90
24085;DHT22;12268;52.110;5.548;2023-06-05T06:12:41;17.30;99.90
24085;DHT22;12268;52.110;5.548;2023-06-05T06:15:07;17.40;99.90
24085;DHT22;12268;52.110;5.548;2023-06-05T06:17:33;17.30;99.90
24085;DHT22;12268;52.110;5.548;2023-06-05T06:19:59;17.40;99.90
24085;DHT22;12268;52.110;5.548;2023-06-05T06:22:24;17.50;99.90
24085;DHT22;12268;52.110;5.548;2023-06-05T06:24:52;17.60;99.90
24085;DHT22;12268;52.110;5.548;2023-06-05T06:27:17;17.60;99.90
24085;DHT22;12268;52.110;5.548;2023-06-05T06:29:48;17.70;99.90
24085;DHT22;12268;52.110;5.548;2023-06-05T06:32:16;17.80;99.90
24085;DHT22;12268;52.110;5.548;2023-06-05T06:34:42;17.90;99.90
24085;DHT22;12268;52.110;5.548;2023-06-05T06:47:31;18.10;99.90
24085;DHT22;12268;52.110;5.548;2023-06-05T06:49:57;18.10;99.90
24085;DHT22;12268;52.110;5.548;2023-06-05T06:52:23;17.80;99.90
24085;DHT22;12268;52.110;5.548;2023-06-05T06:54:49;17.60;99.90
24085;DHT22;12268;52.110;5.548;2023-06-05T06:57:15;18.00;99.90
24085;DHT22;12268;52.110;5.548;2023-06-05T06:59:40;18.10;99.90
24085;DHT22;12268;52.110;5.548;2023-06-05T07:04:35;18.60;99.90
24085;DHT22;12268;52.110;5.548;2023-06-05T09:06:10;37.30;49.20
24085;DHT22;12268;52.110;5.548;2023-06-05T09:08:36;36.90;49.50
24085;DHT22;12268;52.110;5.548;2023-06-05T09:11:25;36.70;49.90
24085;DHT22;12268;52.110;5.548;2023-06-05T09:13:51;37.00;48.90
24085;DHT22;12268;52.110;5.548;2023-06-05T09:16:33;37.10;47.90
24085;DHT22;12268;52.110;5.548;2023-06-05T09:18:59;38.00;49.10
24085;DHT22;12268;52.110;5.548;2023-06-05T09:21:26;38.80;48.50
24085;DHT22;12268;52.110;5.548;2023-06-05T10:36:45;39.30;40.50
24085;DHT22;12268;52.110;5.548;2023-06-05T10:39:13;39.80;41.60
24085;DHT22;12268;52.110;5.548;2023-06-05T10:41:39;40.20;41.10
24085;DHT22;12268;52.110;5.548;2023-06-05T10:44:05;40.70;40.50
24085;DHT22;12268;52.110;5.548;2023-06-05T10:46:33;40.70;40.70
24085;DHT22;12268;52.110;5.548;2023-06-05T10:51:47;40.00;41.40
24085;DHT22;12268;52.110;5.548;2023-06-05T13:06:53;41.70;36.50
24085;DHT22;12268;52.110;5.548;2023-06-05T13:09:20;41.30;37.20
24085;DHT22;12268;52.110;5.548;2023-06-05T13:11:46;40.90;37.80
24085;DHT22;12268;52.110;5.548;2023-06-05T13:14:11;40.30;38.00
24085;DHT22;12268;52.110;5.548;2023-06-05T13:16:37;39.00;39.30
24085;DHT22;12268;52.110;5.548;2023-06-05T13:19:02;38.90;39.50
24085;DHT22;12268;52.110;5.548;2023-06-05T13:21:28;38.30;41.30
24085;DHT22;12268;52.110;5.548;2023-06-05T13:23:53;38.20;40.00
24085;DHT22;12268;52.110;5.548;2023-06-05T13:26:19;38.00;40.20
24085;DHT22;12268;52.110;5.548;2023-06-05T13:28:44;37.60;40.20
24085;DHT22;12268;52.110;5.548;2023-06-05T13:31:10;37.00;41.60
24085;DHT22;12268;52.110;5.548;2023-06-05T13:33:36;36.20;42.50
24085;DHT22;12268;52.110;5.548;2023-06-05T13:36:02;36.00;41.50
24085;DHT22;12268;52.110;5.548;2023-06-05T13:38:27;35.70;42.70
24085;DHT22;12268;52.110;5.548;2023-06-05T13:40:53;35.30;43.10
24085;DHT22;12268;52.110;5.548;2023-06-05T13:43:19;34.80;45.00
24085;DHT22;12268;52.110;5.548;2023-06-05T13:45:45;34.30;45.50
24085;DHT22;12268;52.110;5.548;2023-06-05T13:48:10;34.20;45.50
24085;DHT22;12268;52.110;5.548;2023-06-05T13:50:36;33.80;45.60
24085;DHT22;12268;52.110;5.548;2023-06-05T13:53:02;33.80;45.80
24085;DHT22;12268;52.110;5.548;2023-06-05T13:55:28;33.70;45.40
24085;DHT22;12268;52.110;5.548;2023-06-05T13:57:53;33.60;45.40
24085;DHT22;12268;52.110;5.548;2023-06-05T14:00:19;33.20;49.10
24085;DHT22;12268;52.110;5.548;2023-06-05T14:02:45;32.80;48.10
24085;DHT22;12268;52.110;5.548;2023-06-05T14:05:12;33.10;47.30
24085;DHT22;12268;52.110;5.548;2023-06-05T14:07:37;33.30;47.50
24085;DHT22;12268;52.110;5.548;2023-06-05T14:10:03;33.40;46.50
24085;DHT22;12268;52.110;5.548;2023-06-05T14:12:29;33.50;46.20
24085;DHT22;12268;52.110;5.548;2023-06-05T14:14:55;33.20;47.00
24085;DHT22;12268;52.110;5.548;2023-06-05T14:17:21;33.10;48.00
24085;DHT22;12268;52.110;5.548;2023-06-05T14:19:46;33.20;47.10
24085;DHT22;12268;52.110;5.548;2023-06-05T14:22:12;32.80;48.60
24085;DHT22;12268;52.110;5.548;2023-06-05T14:24:38;32.60;48.30
24085;DHT22;12268;52.110;5.548;2023-06-05T14:27:04;32.60;48.70
24085;DHT22;12268;52.110;5.548;2023-06-05T14:29:30;32.40;48.80
24085;DHT22;12268;52.110;5.548;2023-06-05T14:31:56;32.20;49.00
24085;DHT22;12268;52.110;5.548;2023-06-05T14:34:21;32.10;49.30
24085;DHT22;12268;52.110;5.548;2023-06-05T14:36:47;31.60;50.20
24085;DHT22;12268;52.110;5.548;2023-06-05T14:39:16;32.00;50.30
24085;DHT22;12268;52.110;5.548;2023-06-05T14:41:51;32.00;50.10
24085;DHT22;12268;52.110;5.548;2023-06-05T14:44:16;32.10;49.40
24085;DHT22;12268;52.110;5.548;2023-06-05T14:46:42;31.90;50.10
24085;DHT22;12268;52.110;5.548;2023-06-05T14:49:08;31.70;50.50
24085;DHT22;12268;52.110;5.548;2023-06-05T14:51:33;31.60;51.10
24085;DHT22;12268;52.110;5.548;2023-06-05T14:53:59;31.60;50.10
24085;DHT22;12268;52.110;5.548;2023-06-05T14:56:24;31.50;50.20
24085;DHT22;12268;52.110;5.548;2023-06-05T14:58:51;31.30;50.90
24085;DHT22;12268;52.110;5.548;2023-06-05T15:01:17;31.30;51.50
24085;DHT22;12268;52.110;5.548;2023-06-05T15:03:44;31.40;51.20
24085;DHT22;12268;52.110;5.548;2023-06-05T15:06:10;31.30;50.90
24085;DHT22;12268;52.110;5.548;2023-06-05T15:08:35;31.40;50.60
24085;DHT22;12268;52.110;5.548;2023-06-05T15:11:01;31.10;51.70
24085;DHT22;12268;52.110;5.548;2023-06-05T15:13:26;30.90;51.90
24085;DHT22;12268;52.110;5.548;2023-06-05T15:15:52;30.70;51.90
24085;DHT22;12268;52.110;5.548;2023-06-05T15:18:17;30.70;52.70
24085;DHT22;12268;52.110;5.548;2023-06-05T15:20:43;30.60;53.20
24085;DHT22;12268;52.110;5.548;2023-06-05T15:23:08;30.40;52.60
24085;DHT22;12268;52.110;5.548;2023-06-05T15:25:34;30.50;52.30
24085;DHT22;12268;52.110;5.548;2023-06-05T15:28:01;30.60;52.60
24085;DHT22;12268;52.110;5.548;2023-06-05T15:30:26;30.70;53.60
24085;DHT22;12268;52.110;5.548;2023-06-05T15:32:52;30.70;53.60
24085;DHT22;12268;52.110;5.548;2023-06-05T15:35:17;30.70;54.20
24085;DHT22;12268;52.110;5.548;2023-06-05T15:37:43;30.30;54.90
24085;DHT22;12268;52.110;5.548;2023-06-05T15:40:09;30.10;55.20
24085;DHT22;12268;52.110;5.548;2023-06-05T15:42:35;30.00;55.80
24085;DHT22;12268;52.110;5.548;2023-06-05T15:45:08;29.70;54.80
24085;DHT22;12268;52.110;5.548;2023-06-05T15:47:34;29.70;54.40
24085;DHT22;12268;52.110;5.548;2023-06-05T15:50:00;29.40;55.10
24085;DHT22;12268;52.110;5.548;2023-06-05T15:52:26;29.40;56.50
24085;DHT22;12268;52.110;5.548;2023-06-05T15:54:56;29.50;55.10
24085;DHT22;12268;52.110;5.548;2023-06-05T15:57:22;29.30;56.70
24085;DHT22;12268;52.110;5.548;2023-06-05T15:59:48;29.00;58.50
24085;DHT22;12268;52.110;5.548;2023-06-05T16:02:13;28.90;57.70
24085;DHT22;12268;52.110;5.548;2023-06-05T16:04:39;28.90;58.10
24085;DHT22;12268;52.110;5.548;2023-06-05T16:07:05;28.60;58.40
24085;DHT22;12268;52.110;5.548;2023-06-05T16:09:30;28.40;58.60
24085;DHT22;12268;52.110;5.548;2023-06-05T16:11:56;28.20;58.30
24085;DHT22;12268;52.110;5.548;2023-06-05T16:14:21;28.10;59.10
24085;DHT22;12268;52.110;5.548;2023-06-05T16:16:47;28.20;59.40
24085;DHT22;12268;52.110;5.548;2023-06-05T16:19:13;28.20;59.40
24085;DHT22;12268;52.110;5.548;2023-06-05T16:21:38;28.20;60.60
24085;DHT22;12268;52.110;5.548;2023-06-05T16:24:05;28.00;60.10
24085;DHT22;12268;52.110;5.548;2023-06-05T16:26:30;27.80;60.10
24085;DHT22;12268;52.110;5.548;2023-06-05T16:28:56;27.70;61.40
24085;DHT22;12268;52.110;5.548;2023-06-05T16:31:21;27.30;62.10
24085;DHT22;12268;52.110;5.548;2023-06-05T16:33:47;27.10;62.70
24085;DHT22;12268;52.110;5.548;2023-06-05T16:36:12;26.90;63.30
24085;DHT22;12268;52.110;5.548;2023-06-05T16:38:39;26.60;64.00
24085;DHT22;12268;52.110;5.548;2023-06-05T16:41:05;26.60;65.70
24085;DHT22;12268;52.110;5.548;2023-06-05T16:43:30;26.50;66.10
24085;DHT22;12268;52.110;5.548;2023-06-05T16:45:56;26.40;67.90
24085;DHT22;12268;52.110;5.548;2023-06-05T16:48:22;26.30;67.90
24085;DHT22;12268;52.110;5.548;2023-06-05T16:50:48;26.00;69.80
24085;DHT22;12268;52.110;5.548;2023-06-05T16:53:17;25.90;70.00
24085;DHT22;12268;52.110;5.548;2023-06-05T16:55:43;25.80;70.30
24085;DHT22;12268;52.110;5.548;2023-06-05T16:58:09;25.70;71.60
24085;DHT22;12268;52.110;5.548;2023-06-05T17:00:34;25.50;73.20
24085;DHT22;12268;52.110;5.548;2023-06-05T17:03:03;25.40;74.40
24085;DHT22;12268;52.110;5.548;2023-06-05T17:05:29;25.30;74.60
24085;DHT22;12268;52.110;5.548;2023-06-05T17:07:54;25.10;75.40
24085;DHT22;12268;52.110;5.548;2023-06-05T17:10:20;24.80;79.80
24085;DHT22;12268;52.110;5.548;2023-06-05T17:12:46;24.70;79.70
24085;DHT22;12268;52.110;5.548;2023-06-05T17:15:11;24.80;81.00
24085;DHT22;12268;52.110;5.548;2023-06-05T17:17:40;24.50;82.30
24085;DHT22;12268;52.110;5.548;2023-06-05T17:20:07;24.50;85.00
24085;DHT22;12268;52.110;5.548;2023-06-05T17:22:34;24.20;87.00
24085;DHT22;12268;52.110;5.548;2023-06-05T17:25:01;24.10;90.30
24085;DHT22;12268;52.110;5.548;2023-06-05T17:27:26;24.10;90.20
24085;DHT22;12268;52.110;5.548;2023-06-05T17:29:52;24.00;90.50
24085;DHT22;12268;52.110;5.548;2023-06-05T17:32:17;23.90;91.60
24085;DHT22;12268;52.110;5.548;2023-06-05T17:34:43;23.80;92.20
24085;DHT22;12268;52.110;5.548;2023-06-05T17:37:08;23.70;92.80
24085;DHT22;12268;52.110;5.548;2023-06-05T17:39:34;23.60;93.50
24085;DHT22;12268;52.110;5.548;2023-06-05T17:42:03;23.50;94.20
24085;DHT22;12268;52.110;5.548;2023-06-05T17:44:31;23.30;94.80
24085;DHT22;12268;52.110;5.548;2023-06-05T17:46:56;23.00;96.40
24085;DHT22;12268;52.110;5.548;2023-06-05T17:49:22;22.80;97.00
24085;DHT22;12268;52.110;5.548;2023-06-05T17:51:48;22.90;97.80
24085;DHT22;12268;52.110;5.548;2023-06-05T17:54:13;22.80;98.40
24085;DHT22;12268;52.110;5.548;2023-06-05T17:56:39;22.90;98.90
24085;DHT22;12268;52.110;5.548;2023-06-05T17:59:05;22.90;98.90
24085;DHT22;12268;52.110;5.548;2023-06-05T18:01:31;22.80;99.70
24085;DHT22;12268;52.110;5.548;2023-06-05T18:03:56;22.60;99.90
24085;DHT22;12268;52.110;5.548;2023-06-05T18:06:25;22.70;99.90
24085;DHT22;12268;52.110;5.548;2023-06-05T18:08:50;22.50;99.90
24085;DHT22;12268;52.110;5.548;2023-06-05T18:11:16;22.40;99.90
24085;DHT22;12268;52.110;5.548;2023-06-05T18:13:42;22.30;99.90
24085;DHT22;12268;52.110;5.548;2023-06-05T18:16:08;22.30;99.90
24085;DHT22;12268;52.110;5.548;2023-06-05T18:18:34;22.40;99.90
24085;DHT22;12268;52.110;5.548;2023-06-05T18:20:59;22.40;99.90
24085;DHT22;12268;52.110;5.548;2023-06-05T18:23:25;22.30;99.90
24085;DHT22;12268;52.110;5.548;2023-06-05T18:25:50;22.30;99.90
24085;DHT22;12268;52.110;5.548;2023-06-05T18:28:16;22.20;99.90
24085;DHT22;12268;52.110;5.548;2023-06-05T18:30:42;21.80;99.90
24085;DHT22;12268;52.110;5.548;2023-06-05T18:33:07;21.80;99.90
24085;DHT22;12268;52.110;5.548;2023-06-05T18:35:35;21.70;99.90
24085;DHT22;12268;52.110;5.548;2023-06-05T18:38:02;21.90;99.90
24085;DHT22;12268;52.110;5.548;2023-06-05T18:40:27;22.00;99.90
24085;DHT22;12268;52.110;5.548;2023-06-05T18:42:53;22.10;99.90
24085;DHT22;12268;52.110;5.548;2023-06-05T18:45:19;22.00;99.90
24085;DHT22;12268;52.110;5.548;2023-06-05T18:47:48;22.00;99.90
24085;DHT22;12268;52.110;5.548;2023-06-05T18:50:14;22.00;99.90
24085;DHT22;12268;52.110;5.548;2023-06-05T18:52:39;22.00;99.90
24085;DHT22;12268;52.110;5.548;2023-06-05T18:55:06;21.90;99.90
24085;DHT22;12268;52.110;5.548;2023-06-05T18:57:32;22.00;99.90
24085;DHT22;12268;52.110;5.548;2023-06-05T18:59:57;22.00;99.90
24085;DHT22;12268;52.110;5.548;2023-06-05T19:02:23;21.90;99.90
24085;DHT22;12268;52.110;5.548;2023-06-05T19:04:49;22.00;99.90
24085;DHT22;12268;52.110;5.548;2023-06-05T19:07:14;22.00;99.90
24085;DHT22;12268;52.110;5.548;2023-06-05T19:09:40;22.20;99.90
24085;DHT22;12268;52.110;5.548;2023-06-05T19:12:06;22.10;99.90
24085;DHT22;12268;52.110;5.548;2023-06-05T19:14:33;22.10;99.90
24085;DHT22;12268;52.110;5.548;2023-06-05T19:16:59;22.00;99.90
24085;DHT22;12268;52.110;5.548;2023-06-05T19:19:24;22.00;99.90
24085;DHT22;12268;52.110;5.548;2023-06-05T19:21:50;21.80;99.90
24085;DHT22;12268;52.110;5.548;2023-06-05T19:24:15;21.80;99.90
24085;DHT22;12268;52.110;5.548;2023-06-05T19:26:41;21.70;99.90
24085;DHT22;12268;52.110;5.548;2023-06-05T19:29:07;21.70;99.90
24085;DHT22;12268;52.110;5.548;2023-06-05T19:31:33;21.60;99.90
24085;DHT22;12268;52.110;5.548;2023-06-05T19:33:58;21.50;99.90
24085;DHT22;12268;52.110;5.548;2023-06-05T19:36:24;21.30;99.90
24085;DHT22;12268;52.110;5.548;2023-06-05T19:38:49;21.30;99.90
24085;DHT22;12268;52.110;5.548;2023-06-05T19:41:15;21.20;99.90
24085;DHT22;12268;52.110;5.548;2023-06-05T19:43:45;21.20;99.90
24085;DHT22;12268;52.110;5.548;2023-06-05T19:46:11;21.10;99.90
24085;DHT22;12268;52.110;5.548;2023-06-05T19:48:36;21.00;99.90
24085;DHT22;12268;52.110;5.548;2023-06-05T19:51:02;20.90;99.90
24085;DHT22;12268;52.110;5.548;2023-06-05T19:53:28;20.90;99.90
24085;DHT22;12268;52.110;5.548;2023-06-05T19:55:54;20.80;99.90
24085;DHT22;12268;52.110;5.548;2023-06-05T19:58:20;20.80;99.90
24085;DHT22;12268;52.110;5.548;2023-06-05T20:00:47;20.80;99.90
24085;DHT22;12268;52.110;5.548;2023-06-05T20:03:13;20.60;99.90
24085;DHT22;12268;52.110;5.548;2023-06-05T20:05:38;20.60;99.90
24085;DHT22;12268;52.110;5.548;2023-06-05T20:08:04;20.60;99.90
24085;DHT22;12268;52.110;5.548;2023-06-05T20:10:30;20.40;99.90
24085;DHT22;12268;52.110;5.548;2023-06-05T20:12:55;20.40;99.90
24085;DHT22;12268;52.110;5.548;2023-06-05T20:15:21;20.30;99.90
24085;DHT22;12268;52.110;5.548;2023-06-05T20:17:46;20.30;99.90
24085;DHT22;12268;52.110;5.548;2023-06-05T20:20:12;20.30;99.90
24085;DHT22;12268;52.110;5.548;2023-06-05T20:22:38;20.20;99.90
24085;DHT22;12268;52.110;5.548;2023-06-05T20:25:03;20.20;99.90
24085;DHT22;12268;52.110;5.548;2023-06-05T20:27:30;20.10;99.90
24085;DHT22;12268;52.110;5.548;2023-06-05T20:29:56;20.00;99.90
24085;DHT22;12268;52.110;5.548;2023-06-05T20:32:22;19.90;99.90
24085;DHT22;12268;52.110;5.548;2023-06-05T20:34:47;19.90;99.90
24085;DHT22;12268;52.110;5.548;2023-06-05T20:37:15;19.80;99.90
24085;DHT22;12268;52.110;5.548;2023-06-05T20:39:41;19.90;99.90
24085;DHT22;12268;52.110;5.548;2023-06-05T20:42:11;19.80;99.90
24085;DHT22;12268;52.110;5.548;2023-06-05T20:44:39;19.80;99.90
24085;DHT22;12268;52.110;5.548;2023-06-05T20:47:06;19.70;99.90
24085;DHT22;12268;52.110;5.548;2023-06-05T20:49:33;19.60;99.90
24085;DHT22;12268;52.110;5.548;2023-06-05T20:51:59;19.60;99.90
24085;DHT22;12268;52.110;5.548;2023-06-05T20:54:24;19.50;99.90
24085;DHT22;12268;52.110;5.548;2023-06-05T20:56:50;19.50;99.90
24085;DHT22;12268;52.110;5.548;2023-06-05T20:59:16;19.50;99.90
24085;DHT22;12268;52.110;5.548;2023-06-05T21:01:41;19.40;99.90
24085;DHT22;12268;52.110;5.548;2023-06-05T21:04:07;19.30;99.90
24085;DHT22;12268;52.110;5.548;2023-06-05T21:06:33;19.30;99.90
24085;DHT22;12268;52.110;5.548;2023-06-05T21:08:59;19.20;99.90